createdAt,value
2019-02-19T00:01:04.127Z,10.65
2019-02-19T00:03:33.374Z,10.63
2019-02-19T00:06:05.981Z,10.59
2019-02-19T00:08:35.216Z,10.51
2019-02-19T00:11:04.532Z,10.49
2019-02-19T00:13:33.744Z,10.43
2019-02-19T00:16:05.543Z,10.36
2019-02-19T00:18:35.112Z,10.30
2019-02-19T00:21:04.337Z,10.32
2019-02-19T00:23:33.565Z,10.30
2019-02-19T00:26:04.606Z,10.24
2019-02-19T00:28:33.826Z,10.17
2019-02-19T00:31:03.048Z,10.18
2019-02-19T00:33:32.650Z,10.10
2019-02-19T00:36:05.077Z,10.12
2019-02-19T00:38:34.341Z,10.09
2019-02-19T00:41:06.267Z,10.02
2019-02-19T00:43:35.489Z,9.99
2019-02-19T00:46:05.691Z,9.89
2019-02-19T00:48:35.296Z,9.87
2019-02-19T00:51:04.493Z,9.96
2019-02-19T00:53:33.731Z,10.02
2019-02-19T00:56:03.953Z,9.82
2019-02-19T00:58:33.174Z,9.94
2019-02-19T01:01:02.406Z,9.88
2019-02-19T01:03:31.948Z,9.87
2019-02-19T01:06:03.227Z,9.90
2019-02-19T01:08:32.093Z,9.80
2019-02-19T01:11:01.617Z,9.79
2019-02-19T01:13:31.079Z,9.84
2019-02-19T01:16:00.482Z,9.85
2019-02-19T01:18:30.017Z,9.87
2019-02-19T01:20:59.214Z,9.84
2019-02-19T01:23:28.489Z,9.68
2019-02-19T01:25:58.444Z,9.81
2019-02-19T01:28:27.685Z,9.78
2019-02-19T01:30:57.102Z,9.80
2019-02-19T01:33:26.743Z,9.83
2019-02-19T01:35:56.009Z,9.80
2019-02-19T01:38:25.296Z,9.81
2019-02-19T01:40:54.843Z,9.70
2019-02-19T01:43:24.981Z,9.82
2019-02-19T01:45:54.229Z,9.83
2019-02-19T01:48:23.514Z,9.70
2019-02-19T01:50:52.743Z,9.80
2019-02-19T01:53:22.248Z,9.70
2019-02-19T01:55:51.502Z,9.55
2019-02-19T01:58:20.721Z,9.53
2019-02-19T02:00:49.961Z,9.55
2019-02-19T02:03:19.533Z,9.57
2019-02-19T02:05:48.794Z,9.47
2019-02-19T02:08:18.024Z,9.50
2019-02-19T02:10:47.285Z,9.47
2019-02-19T02:13:16.509Z,9.41
2019-02-19T02:15:46.052Z,9.48
2019-02-19T02:18:15.356Z,9.51
2019-02-19T02:20:44.602Z,9.44
2019-02-19T02:23:14.102Z,9.48
2019-02-19T02:25:43.363Z,9.50
2019-02-19T02:28:12.591Z,9.53
2019-02-19T02:30:41.799Z,9.57
2019-02-19T02:33:11.059Z,9.60
2019-02-19T02:35:40.284Z,9.63
2019-02-19T02:38:09.796Z,9.60
2019-02-19T02:40:39.053Z,9.60
2019-02-19T02:43:08.285Z,9.56
2019-02-19T02:45:38.376Z,9.57
2019-02-19T02:48:07.963Z,9.62
2019-02-19T02:50:37.192Z,9.59
2019-02-19T02:53:06.403Z,9.48
2019-02-19T02:55:35.669Z,9.45
2019-02-19T02:58:05.911Z,9.45
2019-02-19T03:00:35.169Z,9.41
2019-02-19T03:03:04.989Z,9.40
2019-02-19T03:05:36.081Z,9.41
2019-02-19T03:08:06.555Z,9.43
2019-02-19T03:10:35.901Z,9.47
2019-02-19T03:13:05.221Z,9.50
2019-02-19T03:15:34.528Z,9.52
2019-02-19T03:18:06.235Z,9.53
2019-02-19T03:20:35.475Z,9.60
2019-02-19T03:23:06.075Z,9.61
2019-02-19T03:25:35.313Z,9.66
2019-02-19T03:28:05.442Z,9.74
2019-02-19T03:30:34.668Z,9.74
2019-02-19T03:33:04.302Z,9.74
2019-02-19T03:35:33.577Z,9.75
2019-02-19T03:38:04.070Z,9.68
2019-02-19T03:40:33.368Z,9.68
2019-02-19T03:43:02.681Z,9.78
2019-02-19T03:45:31.983Z,9.83
2019-02-19T03:48:04.904Z,9.85
2019-02-19T03:50:34.143Z,9.82
2019-02-19T03:53:03.527Z,9.83
2019-02-19T03:55:32.826Z,9.88
2019-02-19T03:58:03.199Z,9.87
2019-02-19T04:00:32.721Z,9.80
2019-02-19T04:03:02.288Z,9.80
2019-02-19T04:05:31.521Z,9.80
2019-02-19T04:08:00.724Z,9.80
2019-02-19T04:10:29.977Z,9.85
2019-02-19T04:13:00.484Z,9.83
2019-02-19T04:15:29.777Z,9.80
2019-02-19T04:17:59.559Z,9.77
2019-02-19T04:20:28.794Z,9.65
2019-02-19T04:22:58.019Z,9.75
2019-02-19T04:25:27.236Z,9.78
2019-02-19T04:27:56.702Z,9.64
2019-02-19T04:30:26.058Z,9.66
2019-02-19T04:32:55.291Z,9.49
2019-02-19T04:35:24.885Z,9.56
2019-02-19T04:37:54.140Z,9.54
2019-02-19T04:40:23.409Z,9.54
2019-02-19T04:42:52.950Z,9.57
2019-02-19T04:45:22.188Z,9.49
2019-02-19T04:47:51.448Z,9.40
2019-02-19T04:50:21.245Z,9.38
2019-02-19T04:52:50.498Z,9.42
2019-02-19T04:55:19.839Z,9.38
2019-02-19T04:57:49.370Z,9.23
2019-02-19T05:00:18.583Z,9.15
2019-02-19T05:02:47.863Z,9.19
2019-02-19T05:05:17.076Z,9.18
2019-02-19T05:07:46.591Z,9.11
2019-02-19T05:10:16.125Z,9.05
2019-02-19T05:12:45.369Z,9.02
2019-02-19T05:15:14.595Z,8.97
2019-02-19T05:17:45.851Z,9.00
2019-02-19T05:20:15.458Z,9.01
2019-02-19T05:22:44.923Z,9.01
2019-02-19T05:25:16.673Z,8.96
2019-02-19T05:27:45.927Z,8.98
2019-02-19T05:30:15.147Z,9.05
2019-02-19T05:32:44.418Z,9.02
2019-02-19T05:35:13.644Z,8.98
2019-02-19T05:37:43.763Z,8.95
2019-02-19T05:40:13.486Z,8.84
2019-02-19T05:42:42.725Z,8.90
2019-02-19T05:45:12.141Z,9.00
2019-02-19T05:47:41.505Z,8.94
2019-02-19T05:50:10.766Z,8.96
2019-02-19T05:52:41.130Z,9.04
2019-02-19T05:55:10.496Z,9.03
2019-02-19T05:57:39.736Z,8.94
2019-02-19T06:00:09.695Z,8.99
2019-02-19T06:02:38.938Z,9.08
2019-02-19T06:05:09.285Z,9.01
2019-02-19T06:07:38.930Z,9.07
2019-02-19T06:10:09.811Z,9.07
2019-02-19T06:12:39.119Z,9.05
2019-02-19T06:15:08.438Z,9.13
2019-02-19T06:17:38.048Z,8.97
2019-02-19T06:20:07.472Z,8.94
2019-02-19T06:22:36.756Z,9.00
2019-02-19T06:25:07.198Z,8.99
2019-02-19T06:27:36.438Z,8.92
2019-02-19T06:30:08.045Z,8.86
2019-02-19T06:32:37.639Z,8.84
2019-02-19T06:35:07.376Z,8.78
2019-02-19T06:37:36.648Z,8.85
2019-02-19T06:40:12.728Z,8.79
2019-02-19T06:42:41.980Z,8.71
2019-02-19T06:45:11.519Z,8.74
2019-02-19T06:47:40.799Z,8.76
2019-02-19T06:50:10.047Z,8.82
2019-02-19T06:52:39.569Z,8.73
2019-02-19T06:55:09.769Z,8.60
2019-02-19T06:57:39.276Z,8.71
2019-02-19T07:00:09.036Z,8.64
2019-02-19T07:02:44.711Z,8.66
2019-02-19T07:05:18.464Z,8.74
2019-02-19T07:07:48.060Z,8.79
2019-02-19T07:10:17.329Z,8.79
2019-02-19T07:12:46.557Z,8.83
2019-02-19T07:15:16.131Z,8.88
2019-02-19T07:17:45.454Z,8.92
2019-02-19T07:20:14.756Z,8.91
2019-02-19T07:22:44.405Z,8.97
2019-02-19T07:25:13.657Z,8.92
2019-02-19T07:27:42.955Z,8.83
2019-02-19T07:30:12.552Z,8.67
2019-02-19T07:32:41.781Z,8.74
2019-02-19T07:35:11.638Z,8.83
2019-02-19T07:37:41.200Z,8.82
2019-02-19T07:40:10.593Z,8.91
2019-02-19T07:42:40.319Z,8.85
2019-02-19T07:45:10.220Z,8.90
2019-02-19T07:47:39.484Z,8.94
2019-02-19T07:50:09.526Z,8.80
2019-02-19T07:52:41.216Z,8.76
2019-02-19T07:55:10.467Z,8.75
2019-02-19T07:57:40.626Z,8.66
2019-02-19T08:00:10.675Z,8.83
2019-02-19T08:02:40.066Z,8.81
2019-02-19T08:05:09.886Z,8.82
2019-02-19T08:07:39.174Z,8.92
2019-02-19T08:10:08.782Z,8.88
2019-02-19T08:12:38.330Z,8.94
2019-02-19T08:15:07.956Z,9.05
2019-02-19T08:17:37.220Z,9.05
2019-02-19T08:20:15.870Z,9.12
2019-02-19T08:22:40.883Z,9.20
2019-02-19T08:25:10.252Z,9.17
2019-02-19T08:27:39.789Z,9.24
2019-02-19T08:30:10.977Z,9.22
2019-02-19T08:32:40.017Z,9.37
2019-02-19T08:35:09.541Z,9.33
2019-02-19T08:37:38.892Z,9.30
2019-02-19T08:40:08.840Z,9.38
2019-02-19T08:42:38.505Z,9.35
2019-02-19T08:45:08.236Z,9.49
2019-02-19T08:47:42.689Z,9.47
2019-02-19T08:50:08.738Z,9.53
2019-02-19T08:52:38.086Z,9.62
2019-02-19T08:55:07.526Z,9.50
2019-02-19T08:57:37.110Z,9.61
2019-02-19T09:00:08.313Z,9.66
2019-02-19T09:02:37.554Z,9.72
2019-02-19T09:05:06.832Z,9.87
2019-02-19T09:07:36.101Z,9.86
2019-02-19T09:10:08.224Z,9.95
2019-02-19T09:12:37.568Z,9.89
2019-02-19T09:15:08.190Z,9.93
2019-02-19T09:17:37.813Z,9.98
2019-02-19T09:20:07.314Z,10.09
2019-02-19T09:22:36.672Z,10.20
2019-02-19T09:25:06.387Z,10.13
2019-02-19T09:27:35.615Z,10.21
2019-02-19T09:30:06.560Z,10.27
2019-02-19T09:32:36.243Z,10.24
2019-02-19T09:35:06.001Z,10.33
2019-02-19T09:37:35.327Z,10.39
2019-02-19T09:40:07.907Z,10.43
2019-02-19T09:42:37.329Z,10.48
2019-02-19T09:45:07.727Z,10.38
2019-02-19T09:47:37.365Z,10.47
2019-02-19T09:50:07.111Z,10.39
2019-02-19T09:52:36.536Z,10.36
2019-02-19T09:55:06.262Z,10.34
2019-02-19T09:57:35.529Z,10.34
2019-02-19T10:00:07.793Z,10.32
2019-02-19T10:02:37.441Z,10.48
2019-02-19T10:05:08.043Z,10.49
2019-02-19T10:07:37.407Z,10.51
2019-02-19T10:10:09.164Z,10.43
2019-02-19T10:12:38.667Z,10.35
2019-02-19T10:15:09.144Z,10.32
2019-02-19T10:17:38.764Z,10.39
2019-02-19T10:20:08.489Z,10.40
2019-02-19T10:22:37.850Z,10.40
2019-02-19T10:25:08.561Z,10.25
2019-02-19T10:27:37.800Z,10.32
2019-02-19T10:30:08.407Z,10.36
2019-02-19T10:32:37.935Z,10.43
2019-02-19T10:35:07.603Z,10.49
2019-02-19T10:37:37.045Z,10.48
2019-02-19T10:40:11.367Z,10.53
2019-02-19T10:42:40.698Z,10.56
2019-02-19T10:45:12.220Z,10.55
2019-02-19T10:47:41.828Z,10.62
2019-02-19T10:50:11.313Z,10.64
2019-02-19T10:52:41.024Z,10.74
2019-02-19T10:55:10.562Z,10.80
2019-02-19T10:57:40.107Z,10.85
2019-02-19T11:00:13.297Z,10.77
2019-02-19T11:02:42.869Z,10.85
2019-02-19T11:05:12.538Z,10.87
2019-02-19T11:07:41.839Z,10.91
2019-02-19T11:10:11.286Z,10.87
2019-02-19T11:12:41.123Z,10.88
2019-02-19T11:15:12.922Z,10.88
2019-02-19T11:17:42.604Z,10.83
2019-02-19T11:20:12.474Z,10.66
2019-02-19T11:22:41.912Z,10.63
2019-02-19T11:25:12.133Z,10.66
2019-02-19T11:27:41.393Z,10.59
2019-02-19T11:30:13.313Z,10.65
2019-02-19T11:32:42.877Z,10.80
2019-02-19T11:35:12.248Z,10.92
2019-02-19T11:37:41.541Z,10.94
2019-02-19T11:40:12.015Z,11.06
2019-02-19T11:42:41.287Z,11.16
2019-02-19T11:45:12.489Z,11.03
2019-02-19T11:47:42.020Z,11.13
2019-02-19T11:50:12.168Z,11.26
2019-02-19T11:52:41.472Z,11.36
2019-02-19T11:55:12.397Z,11.49
2019-02-19T11:57:41.759Z,11.41
2019-02-19T12:00:14.382Z,11.60
2019-02-19T12:02:43.926Z,11.75
2019-02-19T12:05:13.334Z,11.93
2019-02-19T12:07:42.786Z,11.94
2019-02-19T12:10:12.527Z,12.11
2019-02-19T12:12:41.760Z,12.29
2019-02-19T12:15:11.236Z,12.44
2019-02-19T12:17:40.700Z,12.55
2019-02-19T12:20:11.598Z,12.65
2019-02-19T12:22:49.184Z,12.55
2019-02-19T12:25:18.456Z,12.53
2019-02-19T12:27:47.758Z,13.07
2019-02-19T12:30:17.930Z,13.57
2019-02-19T12:32:47.180Z,14.14
2019-02-19T12:35:16.480Z,14.15
2019-02-19T12:37:47.088Z,14.64
2019-02-19T12:40:16.366Z,14.63
2019-02-19T12:42:45.605Z,14.17
2019-02-19T12:45:16.234Z,14.18
2019-02-19T12:47:45.649Z,14.26
2019-02-19T12:50:14.975Z,14.27
2019-02-19T12:52:44.570Z,14.05
2019-02-19T12:55:13.955Z,13.92
2019-02-19T12:57:43.207Z,14.29
2019-02-19T13:00:14.231Z,14.40
2019-02-19T13:02:44.222Z,14.59
2019-02-19T13:05:13.782Z,14.85
2019-02-19T13:07:43.035Z,15.14
2019-02-19T13:10:12.664Z,14.93
2019-02-19T13:12:41.903Z,14.84
2019-02-19T13:15:12.753Z,14.96
2019-02-19T13:17:41.967Z,15.13
2019-02-19T13:20:12.648Z,15.12
2019-02-19T13:22:42.268Z,15.34
2019-02-19T13:25:11.710Z,15.71
2019-02-19T13:27:40.931Z,16.50
2019-02-19T13:30:12.939Z,17.29
2019-02-19T13:32:42.167Z,18.14
2019-02-19T13:35:11.929Z,18.88
2019-02-19T13:37:41.488Z,18.89
2019-02-19T13:40:11.565Z,19.74
2019-02-19T13:42:40.877Z,20.01
2019-02-19T13:45:11.434Z,20.40
2019-02-19T13:47:40.686Z,20.60
2019-02-19T13:50:12.689Z,20.11
2019-02-19T13:52:50.119Z,19.58
2019-02-19T13:55:22.747Z,19.12
2019-02-19T13:57:52.019Z,18.62
2019-02-19T14:00:23.455Z,17.85
2019-02-19T14:02:52.790Z,17.39
2019-02-19T14:05:22.193Z,16.94
2019-02-19T14:07:51.777Z,16.26
2019-02-19T14:10:21.015Z,16.61
2019-02-19T14:12:51.597Z,16.92
2019-02-19T14:15:40.116Z,16.92
2019-02-19T14:18:10.211Z,16.79
2019-02-19T14:21:01.729Z,16.39
2019-02-19T14:23:58.940Z,16.40
2019-02-19T14:26:49.113Z,16.23
2019-02-19T14:29:36.399Z,15.91
2019-02-19T14:32:42.749Z,15.90
2019-02-19T14:35:27.966Z,15.51
2019-02-19T14:38:16.507Z,15.67
2019-02-19T14:40:58.246Z,15.48
2019-02-19T14:43:49.709Z,15.49
2019-02-19T14:46:46.966Z,15.54
2019-02-19T14:49:36.607Z,15.63
2019-02-19T14:52:21.293Z,15.44
2019-02-19T14:55:25.009Z,15.36
2019-02-19T14:58:19.088Z,15.04
2019-02-19T15:01:09.466Z,15.14
2019-02-19T15:03:56.489Z,14.86
2019-02-19T15:06:54.809Z,14.69
2019-02-19T15:09:45.865Z,14.58
2019-02-19T15:12:37.470Z,14.59
2019-02-19T15:15:25.489Z,14.65
2019-02-19T15:18:25.666Z,14.39
2019-02-19T15:21:16.685Z,14.33
2019-02-19T15:24:05.804Z,14.44
2019-02-19T15:26:54.592Z,14.24
2019-02-19T15:29:41.908Z,14.10
2019-02-19T15:32:42.348Z,14.11
2019-02-19T15:35:34.127Z,14.12
2019-02-19T15:38:28.488Z,14.04
2019-02-19T15:41:28.927Z,13.92
2019-02-19T15:44:09.324Z,13.91
2019-02-19T15:49:47.498Z,13.86
2019-02-19T15:52:27.544Z,13.60
2019-02-19T15:55:14.438Z,13.66
2019-02-19T15:58:21.322Z,13.51
2019-02-19T16:01:08.360Z,13.69
2019-02-19T16:03:53.065Z,13.72
2019-02-19T16:06:38.313Z,13.93
2019-02-19T16:09:15.892Z,13.86
2019-02-19T16:12:10.543Z,14.05
2019-02-19T16:14:47.258Z,14.09
2019-02-19T16:17:42.444Z,13.75
2019-02-19T16:20:20.302Z,13.65
2019-02-19T16:22:59.448Z,13.63
2019-02-19T16:25:46.489Z,13.50
2019-02-19T16:28:31.395Z,13.44
2019-02-19T16:31:10.185Z,13.39
2019-02-19T16:33:50.217Z,13.33
2019-02-19T16:36:29.166Z,13.20
2019-02-19T16:39:26.706Z,13.15
2019-02-19T16:42:13.900Z,13.03
2019-02-19T16:45:15.067Z,12.92
2019-02-19T16:48:03.931Z,12.87
2019-02-19T16:50:40.616Z,12.79
2019-02-19T16:53:35.410Z,12.70
2019-02-19T16:56:18.431Z,12.67
2019-02-19T16:59:07.714Z,12.53
2019-02-19T17:01:51.303Z,12.56
2019-02-19T17:04:46.094Z,12.55
2019-02-19T17:07:23.494Z,12.49
2019-02-19T17:10:00.525Z,12.46
2019-02-19T17:12:49.346Z,12.36
2019-02-19T17:15:40.374Z,12.32
2019-02-19T17:18:27.820Z,12.17
2019-02-19T17:21:06.532Z,12.17
2019-02-19T17:23:54.684Z,12.13
2019-02-19T17:26:46.615Z,12.07
2019-02-19T17:29:40.017Z,12.00
2019-02-19T17:32:28.892Z,11.99
2019-02-19T17:35:15.539Z,11.78
2019-02-19T17:37:55.004Z,11.77
2019-02-19T17:40:39.075Z,11.81
2019-02-19T17:43:16.858Z,11.86
2019-02-19T17:46:12.513Z,11.75
2019-02-19T17:48:59.880Z,11.74
2019-02-19T17:51:57.680Z,11.64
2019-02-19T17:55:02.913Z,11.63
2019-02-19T17:57:41.721Z,11.56
2019-02-19T18:00:34.120Z,11.51
2019-02-19T18:03:31.796Z,11.48
2019-02-19T18:06:17.242Z,11.41
2019-02-19T18:09:05.840Z,11.32
2019-02-19T18:11:50.319Z,11.33
2019-02-19T18:14:32.392Z,11.36
2019-02-19T18:17:21.665Z,11.36
2019-02-19T18:19:51.702Z,11.38
2019-02-19T18:22:21.750Z,11.30
2019-02-19T18:24:51.592Z,11.29
2019-02-19T18:27:21.630Z,11.28
2019-02-19T18:29:51.831Z,11.17
2019-02-19T18:32:21.557Z,11.20
2019-02-19T18:34:51.627Z,11.20
2019-02-19T18:37:21.697Z,11.20
2019-02-19T18:39:51.417Z,11.17
2019-02-19T18:42:21.324Z,11.11
2019-02-19T18:47:11.909Z,11.15
2019-02-19T18:49:41.753Z,11.11
2019-02-19T18:52:12.082Z,11.08
2019-02-19T18:54:41.835Z,11.06
2019-02-19T18:57:11.588Z,10.98
2019-02-19T18:59:41.668Z,10.94
2019-02-19T19:02:13.484Z,10.90
2019-02-19T19:04:43.233Z,10.84
2019-02-19T19:07:13.345Z,10.79
2019-02-19T19:09:43.062Z,10.77
2019-02-19T19:12:13.005Z,10.76
2019-02-19T19:14:43.028Z,10.79
2019-02-19T19:17:12.766Z,10.74
2019-02-19T19:19:42.575Z,10.70
2019-02-19T19:22:12.715Z,10.66
2019-02-19T19:24:42.516Z,10.72
2019-02-19T19:27:12.556Z,10.72
2019-02-19T19:29:42.569Z,10.73
2019-02-19T19:32:14.629Z,10.72
2019-02-19T19:34:44.669Z,10.64
2019-02-19T19:37:14.696Z,10.58
2019-02-19T19:39:44.373Z,10.56
2019-02-19T19:42:14.688Z,10.57
2019-02-19T19:44:44.728Z,10.61
2019-02-19T19:47:14.461Z,10.56
2019-02-19T19:49:44.395Z,10.54
2019-02-19T19:52:14.494Z,10.52
2019-02-19T19:54:44.321Z,10.54
2019-02-19T19:57:14.093Z,10.51
2019-02-19T19:59:44.266Z,10.44
2019-02-19T20:02:14.097Z,10.38
2019-02-19T20:04:43.908Z,10.45
2019-02-19T20:07:14.074Z,10.41
2019-02-19T20:09:43.854Z,10.44
2019-02-19T20:12:13.680Z,10.41
2019-02-19T20:14:43.841Z,10.33
2019-02-19T20:17:13.698Z,10.33
2019-02-19T20:19:45.182Z,10.25
2019-02-19T20:22:15.417Z,10.28
2019-02-19T20:24:47.410Z,10.22
2019-02-19T20:27:17.588Z,10.22
2019-02-19T20:29:49.085Z,10.13
2019-02-19T20:32:19.586Z,10.16
2019-02-19T20:34:49.415Z,10.12
2019-02-19T20:37:19.401Z,10.09
2019-02-19T20:39:49.454Z,10.05
2019-02-19T20:42:19.350Z,10.00
2019-02-19T20:44:52.718Z,9.96
2019-02-19T20:47:22.505Z,9.94
2019-02-19T20:49:52.283Z,9.91
2019-02-19T20:52:22.300Z,10.02
2019-02-19T20:54:52.062Z,10.07
2019-02-19T20:57:22.047Z,10.07
2019-02-19T20:59:52.160Z,10.03
2019-02-19T21:02:22.001Z,9.96
2019-02-19T21:04:52.848Z,9.93
2019-02-19T21:07:22.963Z,9.90
2019-02-19T21:09:52.701Z,9.95
2019-02-19T21:12:22.721Z,9.90
2019-02-19T21:14:53.009Z,9.90
2019-02-19T21:17:22.749Z,9.87
2019-02-19T21:19:53.592Z,9.75
2019-02-19T21:22:23.659Z,9.73
2019-02-19T21:24:53.369Z,9.63
2019-02-19T21:27:24.076Z,9.63
2019-02-19T21:29:54.709Z,9.54
2019-02-19T21:32:24.390Z,9.54
2019-02-19T21:34:54.116Z,9.42
2019-02-19T21:37:24.257Z,9.42
2019-02-19T21:39:53.940Z,9.45
2019-02-19T21:42:24.035Z,9.41
2019-02-19T21:44:54.104Z,9.47
2019-02-19T21:47:23.990Z,9.46
2019-02-19T21:49:54.158Z,9.38
2019-02-19T21:52:24.223Z,9.35
2019-02-19T21:54:53.933Z,9.24
2019-02-19T21:57:23.510Z,9.23
2019-02-19T21:59:53.525Z,9.21
2019-02-19T22:02:23.014Z,9.16
2019-02-19T22:04:52.775Z,9.12
2019-02-19T22:07:22.356Z,8.97
2019-02-19T22:09:51.728Z,9.00
2019-02-19T22:12:21.088Z,8.92
2019-02-19T22:14:51.691Z,8.84
2019-02-19T22:17:21.076Z,8.87
2019-02-19T22:19:50.384Z,8.82
2019-02-19T22:22:21.972Z,8.79
2019-02-19T22:24:51.190Z,8.80
2019-02-19T22:27:20.482Z,8.77
2019-02-19T22:29:50.871Z,8.67
2019-02-19T22:32:20.374Z,8.66
2019-02-19T22:34:49.644Z,8.69
2019-02-19T22:37:19.140Z,8.72
2019-02-19T22:39:48.397Z,8.76
2019-02-19T22:42:17.654Z,8.81
2019-02-19T22:44:47.192Z,8.80
2019-02-19T22:47:16.438Z,8.76
2019-02-19T22:49:45.739Z,8.68
2019-02-19T22:52:15.262Z,8.68
2019-02-19T22:55:09.712Z,8.69
2019-02-19T22:57:39.247Z,8.70
2019-02-19T23:00:11.383Z,8.68
2019-02-19T23:02:41.132Z,8.68
2019-02-19T23:05:10.560Z,8.64
2019-02-19T23:07:39.877Z,8.59
2019-02-19T23:10:09.403Z,8.51
2019-02-19T23:12:38.654Z,8.49
2019-02-19T23:15:08.004Z,8.48
2019-02-19T23:17:37.382Z,8.48
2019-02-19T23:20:06.932Z,8.49
2019-02-19T23:22:36.158Z,8.45
2019-02-19T23:25:05.588Z,8.37
2019-02-19T23:27:34.818Z,8.30
2019-02-19T23:30:07.492Z,8.30
2019-02-19T23:32:38.614Z,8.28
2019-02-19T23:35:27.119Z,8.25
2019-02-19T23:37:57.545Z,8.21
2019-02-19T23:40:26.744Z,8.18
2019-02-19T23:42:56.157Z,8.21
2019-02-19T23:45:25.868Z,8.18
2019-02-19T23:47:55.130Z,8.19
2019-02-19T23:50:24.400Z,8.21
2019-02-19T23:52:53.957Z,8.21
2019-02-19T23:55:23.271Z,8.21
2019-02-19T23:57:52.592Z,8.17
